createdAt,value
2022-10-02T00:00:07.191Z,1008.84
2022-10-02T00:01:07.209Z,1008.81
2022-10-02T00:02:08.708Z,1008.93
2022-10-02T00:03:07.148Z,1008.93
2022-10-02T00:04:08.017Z,1008.92
2022-10-02T00:05:11.173Z,1009.02
2022-10-02T00:06:07.119Z,1009.00
2022-10-02T00:07:07.106Z,1009.08
2022-10-02T00:08:07.117Z,1009.07
2022-10-02T00:09:07.898Z,1009.00
2022-10-02T00:10:07.186Z,1008.99
2022-10-02T00:11:07.070Z,1009.03
2022-10-02T00:12:07.061Z,1009.04
2022-10-02T00:13:13.349Z,1009.15
2022-10-02T00:14:07.925Z,1009.17
2022-10-02T00:17:34.147Z,1009.09
2022-10-02T00:18:34.720Z,1009.09
2022-10-02T00:19:34.717Z,1009.04
2022-10-02T00:20:34.689Z,1009.13
2022-10-02T00:21:35.014Z,1009.05
2022-10-02T00:22:34.778Z,1009.12
2022-10-02T00:23:36.039Z,1009.04
2022-10-02T00:24:34.611Z,1009.18
2022-10-02T00:25:35.524Z,1009.11
2022-10-02T00:26:35.187Z,1009.09
2022-10-02T00:27:34.651Z,1009.17
2022-10-02T00:28:36.754Z,1009.11
2022-10-02T00:29:36.221Z,1009.20
2022-10-02T00:30:34.580Z,1009.22
2022-10-02T00:31:34.618Z,1009.15
2022-10-02T00:32:34.568Z,1009.21
2022-10-02T00:33:34.581Z,1009.15
2022-10-02T00:34:35.579Z,1009.25
2022-10-02T00:35:36.344Z,1009.13
2022-10-02T00:36:38.845Z,1009.09
2022-10-02T00:37:35.329Z,1009.08
2022-10-02T00:38:34.761Z,1009.13
2022-10-02T00:39:34.537Z,1009.20
2022-10-02T00:40:34.889Z,1009.15
2022-10-02T00:41:35.248Z,1009.24
2022-10-02T00:42:35.234Z,1009.23
2022-10-02T00:43:35.393Z,1009.31
2022-10-02T00:44:34.912Z,1009.18
2022-10-02T00:45:34.523Z,1009.21
2022-10-02T00:46:36.526Z,1009.29
2022-10-02T00:47:34.395Z,1009.32
2022-10-02T00:48:34.447Z,1009.23
2022-10-02T00:49:34.443Z,1009.27
2022-10-02T00:50:34.407Z,1009.31
2022-10-02T00:51:34.355Z,1009.30
2022-10-02T00:52:34.473Z,1009.33
2022-10-02T00:53:35.177Z,1009.34
2022-10-02T00:55:53.670Z,1009.35
2022-10-02T01:01:50.114Z,1009.46
2022-10-02T01:02:51.017Z,1009.49
2022-10-02T01:03:51.017Z,1009.45
2022-10-02T01:04:52.390Z,1009.47
2022-10-02T01:05:52.381Z,1009.41
2022-10-02T01:06:51.926Z,1009.47
2022-10-02T01:07:50.969Z,1009.36
2022-10-02T01:08:50.984Z,1009.46
2022-10-02T01:09:51.236Z,1009.43
2022-10-02T01:10:50.925Z,1009.44
2022-10-02T01:11:51.207Z,1009.45
2022-10-02T01:12:51.273Z,1009.54
2022-10-02T01:13:50.951Z,1009.53
2022-10-02T01:14:51.202Z,1009.54
2022-10-02T01:15:50.876Z,1009.56
2022-10-02T01:16:50.897Z,1009.51
2022-10-02T01:17:50.859Z,1009.52
2022-10-02T01:18:52.391Z,1009.54
2022-10-02T01:19:52.711Z,1009.49
2022-10-02T01:20:50.806Z,1009.43
2022-10-02T01:21:51.748Z,1009.49
2022-10-02T01:22:50.787Z,1009.52
2022-10-02T01:23:50.705Z,1009.50
2022-10-02T01:24:50.793Z,1009.52
2022-10-02T01:25:50.673Z,1009.53
2022-10-02T01:26:50.666Z,1009.46
2022-10-02T01:27:50.681Z,1009.47
2022-10-02T01:28:50.642Z,1009.46
2022-10-02T01:29:50.651Z,1009.54
2022-10-02T01:30:50.692Z,1009.51
2022-10-02T01:31:50.688Z,1009.50
2022-10-02T01:32:50.601Z,1009.51
2022-10-02T01:33:50.574Z,1009.56
2022-10-02T01:34:50.563Z,1009.67
2022-10-02T01:35:50.584Z,1009.55
2022-10-02T01:36:50.599Z,1009.62
2022-10-02T01:37:50.552Z,1009.61
2022-10-02T01:38:50.534Z,1009.57
2022-10-02T01:39:50.530Z,1009.58
2022-10-02T01:40:50.604Z,1009.58
2022-10-02T01:41:50.618Z,1009.68
2022-10-02T01:42:50.573Z,1009.65
2022-10-02T01:43:50.659Z,1009.62
2022-10-02T01:44:50.608Z,1009.56
2022-10-02T01:45:50.575Z,1009.63
2022-10-02T01:46:50.573Z,1009.60
2022-10-02T01:47:50.555Z,1009.57
2022-10-02T01:48:50.672Z,1009.62
2022-10-02T01:49:50.500Z,1009.63
2022-10-02T01:50:50.518Z,1009.66
2022-10-02T01:51:50.412Z,1009.68
2022-10-02T01:52:50.446Z,1009.66
2022-10-02T01:53:50.584Z,1009.71
2022-10-02T01:54:50.533Z,1009.75
2022-10-02T01:55:51.454Z,1009.60
2022-10-02T01:56:50.345Z,1009.63
2022-10-02T01:57:50.348Z,1009.63
2022-10-02T01:58:50.381Z,1009.62
2022-10-02T01:59:50.420Z,1009.65
2022-10-02T02:00:50.584Z,1009.69
2022-10-02T02:01:50.355Z,1009.65
2022-10-02T02:02:50.365Z,1009.64
2022-10-02T02:03:53.271Z,1009.61
2022-10-02T02:04:50.374Z,1009.63
2022-10-02T02:05:50.747Z,1009.68
2022-10-02T02:06:50.551Z,1009.67
2022-10-02T02:07:50.943Z,1009.64
2022-10-02T02:08:50.298Z,1009.71
2022-10-02T02:09:50.221Z,1009.68
2022-10-02T02:10:50.786Z,1009.69
2022-10-02T02:11:50.157Z,1009.68
2022-10-02T02:12:50.308Z,1009.71
2022-10-02T02:13:50.965Z,1009.72
2022-10-02T02:14:50.295Z,1009.70
2022-10-02T02:15:50.284Z,1009.73
2022-10-02T02:16:50.334Z,1009.74
2022-10-02T02:17:50.566Z,1009.75
2022-10-02T02:18:50.678Z,1009.72
2022-10-02T02:19:50.224Z,1009.73
2022-10-02T02:20:50.164Z,1009.73
2022-10-02T02:21:50.164Z,1009.79
2022-10-02T02:22:50.260Z,1009.74
2022-10-02T02:23:50.614Z,1009.73
2022-10-02T02:24:50.582Z,1009.68
2022-10-02T02:25:50.405Z,1009.70
2022-10-02T02:26:50.333Z,1009.74
2022-10-02T02:27:50.543Z,1009.81
2022-10-02T02:28:50.353Z,1009.74
2022-10-02T02:29:50.101Z,1009.71
2022-10-02T02:30:50.372Z,1009.72
2022-10-02T02:31:50.389Z,1009.73
2022-10-02T02:32:50.086Z,1009.75
2022-10-02T02:33:52.046Z,1009.87
2022-10-02T02:34:50.279Z,1009.73
2022-10-02T02:35:50.299Z,1009.71
2022-10-02T02:36:50.212Z,1009.75
2022-10-02T02:37:50.006Z,1009.83
2022-10-02T02:38:50.126Z,1009.90
2022-10-02T02:39:50.087Z,1009.94
2022-10-02T02:40:50.149Z,1009.95
2022-10-02T02:41:49.886Z,1009.84
2022-10-02T02:42:50.300Z,1009.90
2022-10-02T02:43:49.882Z,1009.90
2022-10-02T02:44:49.911Z,1009.90
2022-10-02T02:45:50.504Z,1009.89
2022-10-02T02:46:49.890Z,1009.88
2022-10-02T02:47:49.835Z,1009.91
2022-10-02T02:48:49.908Z,1009.90
2022-10-02T02:49:49.746Z,1009.87
2022-10-02T02:50:49.714Z,1009.93
2022-10-02T02:51:49.899Z,1010.00
2022-10-02T02:52:49.792Z,1009.90
2022-10-02T02:53:49.806Z,1009.93
2022-10-02T02:54:49.822Z,1009.98
2022-10-02T02:55:49.748Z,1009.88
2022-10-02T02:56:49.689Z,1009.73
2022-10-02T02:57:49.773Z,1009.78
2022-10-02T02:58:49.763Z,1009.75
2022-10-02T02:59:49.666Z,1009.80
2022-10-02T03:00:49.931Z,1009.80
2022-10-02T03:01:49.779Z,1009.84
2022-10-02T03:02:49.666Z,1009.68
2022-10-02T03:03:49.693Z,1009.75
2022-10-02T03:04:49.722Z,1009.79
2022-10-02T03:05:49.577Z,1009.79
2022-10-02T03:06:49.584Z,1009.77
2022-10-02T03:07:49.613Z,1009.79
2022-10-02T03:08:49.687Z,1009.78
2022-10-02T03:09:49.506Z,1009.75
2022-10-02T03:10:49.579Z,1009.72
2022-10-02T03:11:49.475Z,1009.72
2022-10-02T03:12:49.514Z,1009.76
2022-10-02T03:13:49.463Z,1009.78
2022-10-02T03:14:49.443Z,1009.78
2022-10-02T03:15:49.495Z,1009.75
2022-10-02T03:16:49.433Z,1009.76
2022-10-02T03:17:49.404Z,1009.81
2022-10-02T03:18:49.470Z,1009.87
2022-10-02T03:19:49.388Z,1009.82
2022-10-02T03:20:49.394Z,1009.80
2022-10-02T03:21:49.388Z,1009.83
2022-10-02T03:22:49.389Z,1009.86
2022-10-02T03:23:49.352Z,1009.88
2022-10-02T03:24:49.879Z,1009.78
2022-10-02T03:25:49.538Z,1009.81
2022-10-02T03:26:49.808Z,1009.79
2022-10-02T03:27:49.386Z,1009.79
2022-10-02T03:28:57.188Z,1009.74
2022-10-02T03:29:50.166Z,1009.79
2022-10-02T03:30:49.406Z,1009.81
2022-10-02T03:31:49.308Z,1009.84
2022-10-02T03:32:49.249Z,1009.88
2022-10-02T03:33:49.263Z,1009.88
2022-10-02T03:34:49.258Z,1009.96
2022-10-02T03:35:49.210Z,1009.99
2022-10-02T03:36:49.820Z,1009.96
2022-10-02T03:37:49.191Z,1009.97
2022-10-02T03:39:00.699Z,1009.97
2022-10-02T03:39:49.816Z,1009.96
2022-10-02T03:40:49.171Z,1010.00
2022-10-02T03:41:49.855Z,1009.91
2022-10-02T03:42:49.177Z,1010.00
2022-10-02T03:43:49.124Z,1009.98
2022-10-02T03:44:49.126Z,1009.99
2022-10-02T03:45:51.739Z,1010.02
2022-10-02T03:46:49.167Z,1009.94
2022-10-02T03:47:49.076Z,1009.94
2022-10-02T03:48:49.111Z,1009.89
2022-10-02T03:49:49.054Z,1009.88
2022-10-02T03:50:49.055Z,1009.87
2022-10-02T03:51:49.036Z,1009.82
2022-10-02T03:52:49.098Z,1009.79
2022-10-02T03:53:48.998Z,1009.86
2022-10-02T03:54:49.051Z,1009.90
2022-10-02T03:55:49.670Z,1009.96
2022-10-02T03:56:49.843Z,1010.00
2022-10-02T03:57:48.979Z,1009.95
2022-10-02T03:58:48.949Z,1010.02
2022-10-02T03:59:48.954Z,1010.06
2022-10-02T04:00:49.227Z,1010.13
2022-10-02T04:01:49.396Z,1010.16
2022-10-02T04:02:48.916Z,1010.18
2022-10-02T04:03:48.969Z,1010.21
2022-10-02T04:04:48.886Z,1010.35
2022-10-02T04:05:48.885Z,1010.18
2022-10-02T04:06:48.904Z,1010.27
2022-10-02T04:07:52.600Z,1010.07
2022-10-02T04:08:48.956Z,1010.14
2022-10-02T04:09:48.865Z,1010.20
2022-10-02T04:10:48.824Z,1010.04
2022-10-02T04:11:48.804Z,1010.12
2022-10-02T04:12:48.842Z,1009.98
2022-10-02T04:13:48.774Z,1010.01
2022-10-02T04:14:48.776Z,1009.98
2022-10-02T04:15:49.931Z,1009.89
2022-10-02T04:16:48.829Z,1010.19
2022-10-02T04:17:49.134Z,1009.90
2022-10-02T04:18:49.012Z,1010.00
2022-10-02T04:19:48.751Z,1009.87
2022-10-02T04:20:49.162Z,1009.90
2022-10-02T04:21:48.965Z,1009.98
2022-10-02T04:22:49.123Z,1010.00
2022-10-02T04:23:48.686Z,1010.06
2022-10-02T04:24:49.183Z,1010.03
2022-10-02T04:25:49.133Z,1009.98
2022-10-02T04:26:49.136Z,1009.98
2022-10-02T04:27:49.031Z,1010.13
2022-10-02T04:28:49.006Z,1010.13
2022-10-02T04:29:49.039Z,1010.23
2022-10-02T04:30:49.115Z,1010.16
2022-10-02T04:31:48.904Z,1010.10
2022-10-02T04:32:48.897Z,1010.17
2022-10-02T04:33:49.046Z,1010.22
2022-10-02T04:34:49.042Z,1010.13
2022-10-02T04:35:49.828Z,1010.21
2022-10-02T04:36:48.983Z,1010.28
2022-10-02T04:37:50.682Z,1010.16
2022-10-02T04:38:48.899Z,1010.14
2022-10-02T04:39:48.928Z,1010.09
2022-10-02T04:40:48.780Z,1010.05
2022-10-02T04:41:48.821Z,1010.15
2022-10-02T04:42:48.910Z,1010.11
2022-10-02T04:43:48.962Z,1010.04
2022-10-02T04:44:48.952Z,1010.07
2022-10-02T04:45:49.207Z,1010.21
2022-10-02T04:46:48.703Z,1010.11
2022-10-02T04:47:48.655Z,1010.14
2022-10-02T04:48:48.971Z,1010.17
2022-10-02T04:49:48.810Z,1010.21
2022-10-02T04:50:48.803Z,1010.27
2022-10-02T04:51:48.836Z,1010.32
2022-10-02T04:52:48.799Z,1010.37
2022-10-02T04:53:48.769Z,1010.34
2022-10-02T04:54:48.823Z,1010.42
2022-10-02T04:55:48.713Z,1010.36
2022-10-02T04:56:48.729Z,1010.44
2022-10-02T04:57:48.832Z,1010.34
2022-10-02T04:58:48.369Z,1010.35
2022-10-02T04:59:48.761Z,1010.38
2022-10-02T05:00:49.044Z,1010.38
2022-10-02T05:01:48.399Z,1010.34
2022-10-02T05:02:48.579Z,1010.35
2022-10-02T05:03:48.373Z,1010.33
2022-10-02T05:04:48.780Z,1010.35
2022-10-02T05:05:48.670Z,1010.43
2022-10-02T05:06:48.695Z,1010.40
2022-10-02T05:07:48.630Z,1010.40
2022-10-02T05:08:48.635Z,1010.41
2022-10-02T05:09:48.484Z,1010.42
2022-10-02T05:10:48.553Z,1010.39
2022-10-02T05:11:48.674Z,1010.47
2022-10-02T05:12:48.568Z,1010.40
2022-10-02T05:13:48.582Z,1010.49
2022-10-02T05:14:48.561Z,1010.35
2022-10-02T05:15:48.554Z,1010.38
2022-10-02T05:16:48.501Z,1010.34
2022-10-02T05:17:48.474Z,1010.39
2022-10-02T05:18:48.499Z,1010.35
2022-10-02T05:19:48.547Z,1010.29
2022-10-02T05:20:48.503Z,1010.29
2022-10-02T05:21:48.213Z,1010.30
2022-10-02T05:22:48.448Z,1010.39
2022-10-02T05:23:48.478Z,1010.32
2022-10-02T05:24:48.476Z,1010.37
2022-10-02T05:25:48.279Z,1010.46
2022-10-02T05:26:48.384Z,1010.43
2022-10-02T05:27:48.521Z,1010.40
2022-10-02T05:28:50.136Z,1010.46
2022-10-02T05:29:54.205Z,1010.53
2022-10-02T05:30:54.907Z,1010.51
2022-10-02T05:31:54.952Z,1010.41
2022-10-02T05:32:48.353Z,1010.42
2022-10-02T05:33:48.669Z,1010.49
2022-10-02T05:34:48.272Z,1010.45
2022-10-02T05:35:48.515Z,1010.40
2022-10-02T05:36:48.361Z,1010.51
2022-10-02T05:37:48.067Z,1010.59
2022-10-02T05:38:48.157Z,1010.60
2022-10-02T05:39:47.869Z,1010.61
2022-10-02T05:40:48.318Z,1010.71
2022-10-02T05:41:48.832Z,1010.85
2022-10-02T05:42:48.782Z,1010.69
2022-10-02T05:43:48.189Z,1010.63
2022-10-02T05:44:48.123Z,1010.64
2022-10-02T05:45:48.317Z,1010.67
2022-10-02T05:46:48.230Z,1010.67
2022-10-02T05:47:48.148Z,1010.71
2022-10-02T05:48:48.145Z,1010.77
2022-10-02T05:49:48.132Z,1010.72
2022-10-02T05:50:48.147Z,1010.86
2022-10-02T05:51:47.997Z,1010.77
2022-10-02T05:52:48.001Z,1010.79
2022-10-02T05:53:48.108Z,1010.74
2022-10-02T05:54:47.933Z,1010.80
2022-10-02T05:55:47.966Z,1010.84
2022-10-02T05:56:47.926Z,1010.94
2022-10-02T05:57:48.155Z,1010.89
2022-10-02T05:58:48.142Z,1010.98
2022-10-02T05:59:48.108Z,1010.99
2022-10-02T06:00:47.896Z,1011.00
2022-10-02T06:01:47.999Z,1011.00
2022-10-02T06:02:47.993Z,1011.05
2022-10-02T06:03:47.815Z,1010.98
2022-10-02T06:04:47.970Z,1010.97
2022-10-02T06:05:47.988Z,1011.01
2022-10-02T06:06:47.912Z,1010.99
2022-10-02T06:07:47.950Z,1010.99
2022-10-02T06:08:47.881Z,1011.03
2022-10-02T06:09:47.867Z,1011.04
2022-10-02T06:10:47.891Z,1011.07
2022-10-02T06:11:47.845Z,1011.07
2022-10-02T06:12:48.991Z,1011.09
2022-10-02T06:13:47.816Z,1011.02
2022-10-02T06:14:50.702Z,1011.02
2022-10-02T06:15:47.848Z,1011.02
2022-10-02T06:16:47.965Z,1010.99
2022-10-02T06:17:47.843Z,1011.07
2022-10-02T06:18:47.760Z,1011.07
2022-10-02T06:19:47.867Z,1011.05
2022-10-02T06:20:47.779Z,1011.10
2022-10-02T06:21:47.943Z,1011.12
2022-10-02T06:22:47.333Z,1011.06
2022-10-02T06:23:47.362Z,1011.07
2022-10-02T06:24:47.336Z,1011.06
2022-10-02T06:25:47.358Z,1011.10
2022-10-02T06:26:47.303Z,1011.10
2022-10-02T06:27:47.387Z,1011.08
2022-10-02T06:28:47.296Z,1011.12
2022-10-02T06:29:47.293Z,1011.15
2022-10-02T06:30:47.263Z,1011.17
2022-10-02T06:31:47.378Z,1011.18
2022-10-02T06:32:47.265Z,1011.24
2022-10-02T06:33:47.212Z,1011.24
2022-10-02T06:34:48.263Z,1011.21
2022-10-02T06:35:47.297Z,1011.22
2022-10-02T06:36:47.186Z,1011.19
2022-10-02T06:37:47.178Z,1011.25
2022-10-02T06:38:47.182Z,1011.29
2022-10-02T06:39:47.265Z,1011.33
2022-10-02T06:40:47.140Z,1011.34
2022-10-02T06:41:47.181Z,1011.30
2022-10-02T06:42:47.145Z,1011.35
2022-10-02T06:43:47.679Z,1011.37
2022-10-02T06:44:47.155Z,1011.36
2022-10-02T06:45:47.148Z,1011.40
2022-10-02T06:46:51.166Z,1011.46
2022-10-02T06:47:47.115Z,1011.46
2022-10-02T06:48:47.048Z,1011.41
2022-10-02T06:49:47.048Z,1011.40
2022-10-02T06:50:47.048Z,1011.41
2022-10-02T06:51:47.021Z,1011.41
2022-10-02T06:52:47.045Z,1011.41
2022-10-02T06:53:47.050Z,1011.44
2022-10-02T06:54:46.981Z,1011.45
2022-10-02T06:55:46.993Z,1011.49
2022-10-02T06:56:46.994Z,1011.52
2022-10-02T06:57:46.955Z,1011.54
2022-10-02T06:58:46.963Z,1011.46
2022-10-02T06:59:47.009Z,1011.49
2022-10-02T07:00:47.058Z,1011.52
2022-10-02T07:01:47.054Z,1011.50
2022-10-02T07:02:46.891Z,1011.55
2022-10-02T07:03:46.892Z,1011.58
2022-10-02T07:04:46.854Z,1011.61
2022-10-02T07:05:46.930Z,1011.55
2022-10-02T07:06:46.844Z,1011.63
2022-10-02T07:07:46.861Z,1011.54
2022-10-02T07:08:46.833Z,1011.60
2022-10-02T07:09:46.817Z,1011.63
2022-10-02T07:10:46.794Z,1011.67
2022-10-02T07:11:46.874Z,1011.65
2022-10-02T07:12:47.755Z,1011.65
2022-10-02T07:13:46.813Z,1011.64
2022-10-02T07:14:46.780Z,1011.63
2022-10-02T07:15:46.751Z,1011.68
2022-10-02T07:16:46.769Z,1011.72
2022-10-02T07:17:46.818Z,1011.77
2022-10-02T07:18:46.728Z,1011.72
2022-10-02T07:19:46.688Z,1011.76
2022-10-02T07:20:46.683Z,1011.84
2022-10-02T07:21:46.698Z,1011.79
2022-10-02T07:22:46.728Z,1011.85
2022-10-02T07:23:46.763Z,1011.87
2022-10-02T07:24:46.675Z,1011.82
2022-10-02T07:25:46.662Z,1011.83
2022-10-02T07:26:46.738Z,1011.86
2022-10-02T07:27:46.628Z,1011.85
2022-10-02T07:28:46.603Z,1011.82
2022-10-02T07:29:46.647Z,1011.81
2022-10-02T07:30:46.626Z,1011.84
2022-10-02T07:31:48.436Z,1011.83
2022-10-02T07:32:46.620Z,1011.80
2022-10-02T07:33:46.615Z,1011.83
2022-10-02T07:34:47.509Z,1011.89
2022-10-02T07:35:46.560Z,1011.85
2022-10-02T07:36:46.549Z,1011.88
2022-10-02T07:37:46.535Z,1011.86
2022-10-02T07:38:46.770Z,1011.89
2022-10-02T07:39:47.262Z,1011.90
2022-10-02T07:40:46.459Z,1012.01
2022-10-02T07:41:46.872Z,1011.97
2022-10-02T07:42:46.434Z,1011.99
2022-10-02T07:43:46.436Z,1011.99
2022-10-02T07:44:46.432Z,1012.03
2022-10-02T07:45:46.452Z,1012.06
2022-10-02T07:46:46.415Z,1012.06
2022-10-02T07:47:46.475Z,1012.02
2022-10-02T07:48:46.518Z,1012.03
2022-10-02T07:49:46.444Z,1012.10
2022-10-02T07:50:46.390Z,1012.11
2022-10-02T07:51:46.349Z,1012.08
2022-10-02T07:52:46.340Z,1012.10
2022-10-02T07:53:46.446Z,1012.16
2022-10-02T07:54:46.337Z,1012.20
2022-10-02T07:55:46.340Z,1012.11
2022-10-02T07:56:46.300Z,1012.10
2022-10-02T07:57:46.295Z,1012.15
2022-10-02T07:58:46.284Z,1012.09
2022-10-02T07:59:46.306Z,1012.23
2022-10-02T08:00:46.282Z,1012.42
2022-10-02T08:01:46.284Z,1012.36
2022-10-02T08:02:46.322Z,1012.28
2022-10-02T08:03:46.193Z,1012.35
2022-10-02T08:04:46.188Z,1012.35
2022-10-02T08:05:46.899Z,1012.30
2022-10-02T08:06:46.218Z,1012.40
2022-10-02T08:07:46.162Z,1012.37
2022-10-02T08:08:46.361Z,1012.37
2022-10-02T08:09:46.166Z,1012.38
2022-10-02T08:10:46.185Z,1012.39
2022-10-02T08:11:49.513Z,1012.51
2022-10-02T08:12:46.153Z,1012.43
2022-10-02T08:13:46.909Z,1012.40
2022-10-02T08:14:46.097Z,1012.41
2022-10-02T08:15:47.131Z,1012.44
2022-10-02T08:16:46.095Z,1012.44
2022-10-02T08:17:46.872Z,1012.46
2022-10-02T08:18:46.074Z,1012.43
2022-10-02T08:19:46.028Z,1012.38
2022-10-02T08:20:46.031Z,1012.53
2022-10-02T08:21:46.048Z,1012.47
2022-10-02T08:22:46.025Z,1012.45
2022-10-02T08:23:46.123Z,1012.54
2022-10-02T08:24:47.002Z,1012.54
2022-10-02T08:25:46.003Z,1012.50
2022-10-02T08:26:45.944Z,1012.57
2022-10-02T08:27:46.064Z,1012.63
2022-10-02T08:28:45.938Z,1012.62
2022-10-02T08:29:46.027Z,1012.57
2022-10-02T08:30:45.891Z,1012.65
2022-10-02T08:31:46.031Z,1012.67
2022-10-02T08:32:45.918Z,1012.71
2022-10-02T08:33:45.956Z,1012.69
2022-10-02T08:34:45.939Z,1012.70
2022-10-02T08:35:46.001Z,1012.69
2022-10-02T08:36:45.863Z,1012.88
2022-10-02T08:37:45.950Z,1012.79
2022-10-02T08:38:46.477Z,1012.80
2022-10-02T08:39:46.020Z,1012.89
2022-10-02T08:40:46.050Z,1012.67
2022-10-02T08:41:45.989Z,1012.76
2022-10-02T08:42:45.971Z,1012.75
2022-10-02T08:43:46.169Z,1012.87
2022-10-02T08:44:45.969Z,1012.81
2022-10-02T08:45:45.895Z,1012.88
2022-10-02T08:46:45.765Z,1012.86
2022-10-02T08:47:45.756Z,1012.82
2022-10-02T08:48:45.844Z,1012.82
2022-10-02T08:49:45.804Z,1012.83
2022-10-02T08:50:45.686Z,1012.83
2022-10-02T08:51:45.696Z,1012.83
2022-10-02T08:52:45.737Z,1012.91
2022-10-02T08:53:46.389Z,1012.84
2022-10-02T08:54:45.627Z,1012.90
2022-10-02T08:55:45.722Z,1012.86
2022-10-02T08:56:45.657Z,1012.89
2022-10-02T08:57:45.722Z,1012.97
2022-10-02T08:58:45.659Z,1012.90
2022-10-02T08:59:45.873Z,1012.92
2022-10-02T09:00:45.612Z,1012.99
2022-10-02T09:01:45.601Z,1012.96
2022-10-02T09:02:45.642Z,1012.96
2022-10-02T09:03:45.571Z,1012.98
2022-10-02T09:04:45.593Z,1012.99
2022-10-02T09:05:46.044Z,1013.03
2022-10-02T09:06:45.511Z,1013.06
2022-10-02T09:07:45.577Z,1013.09
2022-10-02T09:08:45.944Z,1013.16
2022-10-02T09:09:45.526Z,1013.10
2022-10-02T09:10:45.542Z,1013.18
2022-10-02T09:11:45.904Z,1013.21
2022-10-02T09:12:45.614Z,1013.21
2022-10-02T09:13:45.944Z,1013.17
2022-10-02T09:14:45.771Z,1013.13
2022-10-02T09:15:45.785Z,1013.25
2022-10-02T09:16:45.926Z,1013.24
2022-10-02T09:17:45.768Z,1013.20
2022-10-02T09:18:45.869Z,1013.15
2022-10-02T09:19:45.536Z,1013.20
2022-10-02T09:20:45.644Z,1013.24
2022-10-02T09:21:46.234Z,1013.31
2022-10-02T09:22:46.036Z,1013.44
2022-10-02T09:23:46.540Z,1013.23
2022-10-02T09:24:45.740Z,1013.27
2022-10-02T09:25:46.198Z,1013.26
2022-10-02T09:26:45.301Z,1013.31
2022-10-02T09:27:45.328Z,1013.35
2022-10-02T09:28:45.309Z,1013.28
2022-10-02T09:29:45.355Z,1013.21
2022-10-02T09:30:45.236Z,1013.28
2022-10-02T09:31:45.451Z,1013.21
2022-10-02T09:32:45.207Z,1013.25
2022-10-02T09:33:45.215Z,1013.23
2022-10-02T09:34:45.270Z,1013.30
2022-10-02T09:35:45.186Z,1013.32
2022-10-02T09:36:45.225Z,1013.21
2022-10-02T09:37:45.165Z,1013.22
2022-10-02T09:38:45.164Z,1013.25
2022-10-02T09:39:45.147Z,1013.20
2022-10-02T09:40:45.249Z,1013.17
2022-10-02T09:41:45.891Z,1013.32
2022-10-02T09:42:46.232Z,1013.22
2022-10-02T09:43:45.356Z,1013.35
2022-10-02T09:44:46.333Z,1013.23
2022-10-02T09:45:45.141Z,1013.23
2022-10-02T09:46:45.265Z,1013.24
2022-10-02T09:47:45.058Z,1013.41
2022-10-02T09:48:45.040Z,1013.30
2022-10-02T09:49:45.070Z,1013.43
2022-10-02T09:50:45.228Z,1013.24
2022-10-02T09:51:45.173Z,1013.41
2022-10-02T09:52:45.226Z,1013.34
2022-10-02T09:53:45.193Z,1013.35
2022-10-02T09:54:45.194Z,1013.36
2022-10-02T09:55:45.150Z,1013.35
2022-10-02T09:56:45.151Z,1013.44
2022-10-02T09:57:45.211Z,1013.52
2022-10-02T09:58:45.236Z,1013.61
2022-10-02T09:59:45.176Z,1013.42
2022-10-02T10:00:45.312Z,1013.47
2022-10-02T10:01:45.261Z,1013.49
2022-10-02T10:02:45.352Z,1013.54
2022-10-02T10:03:45.630Z,1013.55
2022-10-02T10:05:04.533Z,1013.59
2022-10-02T10:05:45.210Z,1013.64
2022-10-02T10:06:45.302Z,1013.62
2022-10-02T10:07:45.165Z,1013.56
2022-10-02T10:08:45.164Z,1013.55
2022-10-02T10:09:45.085Z,1013.54
2022-10-02T10:10:45.339Z,1013.81
2022-10-02T10:11:45.227Z,1013.77
2022-10-02T10:12:45.104Z,1013.67
2022-10-02T10:13:45.015Z,1013.70
2022-10-02T10:14:45.089Z,1013.68
2022-10-02T10:15:45.023Z,1013.71
2022-10-02T10:16:45.081Z,1013.78
2022-10-02T10:17:44.860Z,1013.76
2022-10-02T10:18:44.765Z,1013.75
2022-10-02T10:19:44.828Z,1013.74
2022-10-02T10:20:45.124Z,1013.78
2022-10-02T10:21:44.961Z,1013.79
2022-10-02T10:22:45.512Z,1013.73
2022-10-02T10:23:44.786Z,1013.81
2022-10-02T10:24:44.790Z,1013.83
2022-10-02T10:25:44.970Z,1013.85
2022-10-02T10:26:44.623Z,1013.89
2022-10-02T10:27:44.726Z,1013.89
2022-10-02T10:28:44.664Z,1013.87
2022-10-02T10:29:44.926Z,1013.83
2022-10-02T10:30:45.119Z,1013.86
2022-10-02T10:31:44.809Z,1013.90
2022-10-02T10:32:44.943Z,1013.90
2022-10-02T10:33:45.029Z,1013.99
2022-10-02T10:34:45.952Z,1013.88
2022-10-02T10:35:44.811Z,1013.79
2022-10-02T10:36:46.814Z,1013.88
2022-10-02T10:37:44.781Z,1013.87
2022-10-02T10:38:44.917Z,1013.88
2022-10-02T10:39:44.783Z,1013.87
2022-10-02T10:40:45.849Z,1013.81
2022-10-02T10:41:44.865Z,1013.92
2022-10-02T10:43:05.962Z,1013.95
2022-10-02T10:43:44.470Z,1013.84
2022-10-02T10:44:44.724Z,1014.03
2022-10-02T10:45:45.615Z,1013.87
2022-10-02T10:46:44.808Z,1013.94
2022-10-02T10:47:44.636Z,1013.96
2022-10-02T10:48:49.226Z,1013.96
2022-10-02T10:49:44.640Z,1013.87
2022-10-02T10:50:44.632Z,1013.93
2022-10-02T10:51:45.137Z,1013.99
2022-10-02T10:52:44.793Z,1014.01
2022-10-02T10:53:44.426Z,1013.85
2022-10-02T10:54:45.372Z,1013.94
2022-10-02T10:55:44.839Z,1014.02
2022-10-02T10:56:44.656Z,1014.05
2022-10-02T10:57:44.460Z,1014.08
2022-10-02T10:58:44.721Z,1014.08
2022-10-02T10:59:44.859Z,1014.09
2022-10-02T11:00:44.457Z,1014.13
2022-10-02T11:01:44.438Z,1014.10
2022-10-02T11:02:44.488Z,1014.24
2022-10-02T11:03:44.190Z,1014.17
2022-10-02T11:04:44.343Z,1014.20
2022-10-02T11:05:44.370Z,1014.19
2022-10-02T11:06:46.239Z,1014.21
2022-10-02T11:07:44.264Z,1014.30
2022-10-02T11:08:44.194Z,1014.23
2022-10-02T11:09:44.355Z,1014.31
2022-10-02T11:10:44.166Z,1014.32
2022-10-02T11:11:44.942Z,1014.41
2022-10-02T11:12:44.133Z,1014.39
2022-10-02T11:13:44.243Z,1014.37
2022-10-02T11:14:44.071Z,1014.41
2022-10-02T11:15:44.246Z,1014.37
2022-10-02T11:16:44.442Z,1014.35
2022-10-02T11:17:44.185Z,1014.34
2022-10-02T11:18:44.094Z,1014.38
2022-10-02T11:19:44.431Z,1014.40
2022-10-02T11:20:44.019Z,1014.46
2022-10-02T11:21:44.076Z,1014.44
2022-10-02T11:22:44.292Z,1014.37
2022-10-02T11:23:44.101Z,1014.45
2022-10-02T11:24:44.013Z,1014.39
2022-10-02T11:25:44.003Z,1014.37
2022-10-02T11:26:44.023Z,1014.50
2022-10-02T11:27:44.024Z,1014.35
2022-10-02T11:28:44.010Z,1014.42
2022-10-02T11:29:44.412Z,1014.43
2022-10-02T11:30:45.133Z,1014.43
2022-10-02T11:31:44.056Z,1014.46
2022-10-02T11:32:43.975Z,1014.47
2022-10-02T11:33:43.880Z,1014.39
2022-10-02T11:34:43.925Z,1014.53
2022-10-02T11:35:44.037Z,1014.42
2022-10-02T11:36:43.945Z,1014.56
2022-10-02T11:37:43.956Z,1014.45
2022-10-02T11:38:44.044Z,1014.54
2022-10-02T11:39:43.935Z,1014.48
2022-10-02T11:40:44.030Z,1014.54
2022-10-02T11:41:43.975Z,1014.44
2022-10-02T11:42:43.771Z,1014.41
2022-10-02T11:43:44.265Z,1014.44
2022-10-02T11:44:43.816Z,1014.47
2022-10-02T11:45:43.999Z,1014.47
2022-10-02T11:46:43.954Z,1014.51
2022-10-02T11:47:43.885Z,1014.52
2022-10-02T11:48:43.769Z,1014.50
2022-10-02T11:49:43.946Z,1014.50
2022-10-02T11:50:43.991Z,1014.54
2022-10-02T11:51:43.715Z,1014.46
2022-10-02T11:52:48.161Z,1014.56
2022-10-02T11:53:43.917Z,1014.71
2022-10-02T11:54:43.889Z,1014.53
2022-10-02T11:55:43.733Z,1014.46
2022-10-02T11:56:43.925Z,1014.53
2022-10-02T11:57:43.773Z,1014.61
2022-10-02T11:58:43.973Z,1014.65
2022-10-02T11:59:43.756Z,1014.69
2022-10-02T12:00:43.810Z,1014.70
2022-10-02T12:01:43.976Z,1014.76
2022-10-02T12:02:44.186Z,1014.63
2022-10-02T12:03:44.585Z,1014.70
2022-10-02T12:04:43.877Z,1014.86
2022-10-02T12:05:43.732Z,1014.71
2022-10-02T12:06:43.755Z,1014.74
2022-10-02T12:07:43.698Z,1014.72
2022-10-02T12:08:43.722Z,1014.73
2022-10-02T12:09:43.717Z,1014.70
2022-10-02T12:10:43.537Z,1014.67
2022-10-02T12:11:43.562Z,1014.97
2022-10-02T12:12:43.440Z,1014.78
2022-10-02T12:13:43.434Z,1014.78